sensor_id;sensor_type;location;lat;lon;timestamp;P1;durP1;ratioP1;P2;durP2;ratioP2
51594;SDS011;37677;53.254;6.594;2023-10-31T00:01:55;5.35;;;1.60;;
51594;SDS011;37677;53.254;6.594;2023-10-31T00:04:21;2.88;;;1.40;;
51594;SDS011;37677;53.254;6.594;2023-10-31T00:06:47;3.75;;;1.67;;
51594;SDS011;37677;53.254;6.594;2023-10-31T00:09:18;5.40;;;1.50;;
51594;SDS011;37677;53.254;6.594;2023-10-31T00:11:44;5.95;;;1.60;;
51594;SDS011;37677;53.254;6.594;2023-10-31T00:14:10;6.63;;;1.50;;
51594;SDS011;37677;53.254;6.594;2023-10-31T00:16:36;6.10;;;1.73;;
51594;SDS011;37677;53.254;6.594;2023-10-31T00:19:04;6.38;;;1.63;;
51594;SDS011;37677;53.254;6.594;2023-10-31T00:21:30;6.20;;;1.92;;
51594;SDS011;37677;53.254;6.594;2023-10-31T00:24:14;5.82;;;2.08;;
51594;SDS011;37677;53.254;6.594;2023-10-31T00:26:56;5.00;;;1.50;;
51594;SDS011;37677;53.254;6.594;2023-10-31T00:29:23;4.80;;;1.80;;
51594;SDS011;37677;53.254;6.594;2023-10-31T00:31:52;4.95;;;1.55;;
51594;SDS011;37677;53.254;6.594;2023-10-31T00:34:18;3.50;;;1.42;;
51594;SDS011;37677;53.254;6.594;2023-10-31T00:36:45;6.03;;;1.60;;
51594;SDS011;37677;53.254;6.594;2023-10-31T00:39:11;7.68;;;2.10;;
51594;SDS011;37677;53.254;6.594;2023-10-31T00:41:38;8.43;;;1.60;;
51594;SDS011;37677;53.254;6.594;2023-10-31T00:44:12;5.30;;;1.48;;
51594;SDS011;37677;53.254;6.594;2023-10-31T00:46:38;5.13;;;1.70;;
51594;SDS011;37677;53.254;6.594;2023-10-31T00:49:08;6.93;;;1.63;;
51594;SDS011;37677;53.254;6.594;2023-10-31T00:51:34;7.30;;;1.50;;
51594;SDS011;37677;53.254;6.594;2023-10-31T00:54:00;4.13;;;1.60;;
51594;SDS011;37677;53.254;6.594;2023-10-31T00:56:35;5.35;;;1.60;;
51594;SDS011;37677;53.254;6.594;2023-10-31T00:59:04;12.73;;;1.63;;
51594;SDS011;37677;53.254;6.594;2023-10-31T01:01:30;4.90;;;1.48;;
51594;SDS011;37677;53.254;6.594;2023-10-31T01:03:57;5.32;;;1.33;;
51594;SDS011;37677;53.254;6.594;2023-10-31T01:06:23;3.60;;;1.13;;
51594;SDS011;37677;53.254;6.594;2023-10-31T01:11:48;4.63;;;1.70;;
51594;SDS011;37677;53.254;6.594;2023-10-31T01:14:22;5.82;;;1.40;;
51594;SDS011;37677;53.254;6.594;2023-10-31T01:17:03;6.95;;;1.50;;
51594;SDS011;37677;53.254;6.594;2023-10-31T01:19:29;5.38;;;1.60;;
51594;SDS011;37677;53.254;6.594;2023-10-31T01:22:10;5.93;;;1.30;;
51594;SDS011;37677;53.254;6.594;2023-10-31T01:24:44;5.20;;;1.52;;
51594;SDS011;37677;53.254;6.594;2023-10-31T01:27:12;4.88;;;1.67;;
51594;SDS011;37677;53.254;6.594;2023-10-31T01:29:43;5.35;;;1.45;;
51594;SDS011;37677;53.254;6.594;2023-10-31T01:32:14;6.15;;;1.58;;
51594;SDS011;37677;53.254;6.594;2023-10-31T01:34:43;4.70;;;1.52;;
51594;SDS011;37677;53.254;6.594;2023-10-31T01:37:14;4.05;;;1.45;;
51594;SDS011;37677;53.254;6.594;2023-10-31T01:39:40;3.40;;;1.45;;
51594;SDS011;37677;53.254;6.594;2023-10-31T01:42:14;8.80;;;1.80;;
51594;SDS011;37677;53.254;6.594;2023-10-31T01:44:49;7.55;;;1.63;;
51594;SDS011;37677;53.254;6.594;2023-10-31T01:47:15;6.40;;;1.60;;
51594;SDS011;37677;53.254;6.594;2023-10-31T01:49:43;4.63;;;1.45;;
51594;SDS011;37677;53.254;6.594;2023-10-31T01:52:13;7.35;;;1.80;;
51594;SDS011;37677;53.254;6.594;2023-10-31T01:54:39;7.75;;;1.65;;
51594;SDS011;37677;53.254;6.594;2023-10-31T01:57:06;3.90;;;1.20;;
51594;SDS011;37677;53.254;6.594;2023-10-31T01:59:43;6.38;;;1.80;;
51594;SDS011;37677;53.254;6.594;2023-10-31T02:02:09;5.93;;;1.13;;
51594;SDS011;37677;53.254;6.594;2023-10-31T02:04:42;7.22;;;1.70;;
51594;SDS011;37677;53.254;6.594;2023-10-31T02:07:23;2.28;;;0.98;;
51594;SDS011;37677;53.254;6.594;2023-10-31T02:15:33;5.78;;;1.58;;
51594;SDS011;37677;53.254;6.594;2023-10-31T02:17:59;9.27;;;1.90;;
51594;SDS011;37677;53.254;6.594;2023-10-31T02:20:32;4.65;;;1.48;;
51594;SDS011;37677;53.254;6.594;2023-10-31T02:22:59;5.57;;;1.33;;
51594;SDS011;37677;53.254;6.594;2023-10-31T02:25:25;5.88;;;1.80;;
51594;SDS011;37677;53.254;6.594;2023-10-31T02:28:01;5.75;;;1.20;;
51594;SDS011;37677;53.254;6.594;2023-10-31T02:33:31;3.85;;;1.40;;
51594;SDS011;37677;53.254;6.594;2023-10-31T02:35:58;5.38;;;1.45;;
51594;SDS011;37677;53.254;6.594;2023-10-31T02:41:15;5.82;;;1.38;;
51594;SDS011;37677;53.254;6.594;2023-10-31T02:43:43;4.32;;;1.60;;
51594;SDS011;37677;53.254;6.594;2023-10-31T02:46:12;8.68;;;2.00;;
51594;SDS011;37677;53.254;6.594;2023-10-31T02:51:10;8.00;;;1.88;;
51594;SDS011;37677;53.254;6.594;2023-10-31T02:53:36;5.25;;;1.48;;
51594;SDS011;37677;53.254;6.594;2023-10-31T02:56:03;6.78;;;1.95;;
51594;SDS011;37677;53.254;6.594;2023-10-31T02:58:41;7.13;;;2.10;;
51594;SDS011;37677;53.254;6.594;2023-10-31T03:01:07;6.03;;;1.80;;
51594;SDS011;37677;53.254;6.594;2023-10-31T03:03:33;6.47;;;2.17;;
51594;SDS011;37677;53.254;6.594;2023-10-31T03:05:59;6.13;;;1.80;;
51594;SDS011;37677;53.254;6.594;2023-10-31T03:08:27;5.28;;;1.70;;
51594;SDS011;37677;53.254;6.594;2023-10-31T03:10:53;5.20;;;2.10;;
51594;SDS011;37677;53.254;6.594;2023-10-31T03:13:32;6.22;;;1.63;;
51594;SDS011;37677;53.254;6.594;2023-10-31T03:15:58;7.95;;;2.20;;
51594;SDS011;37677;53.254;6.594;2023-10-31T03:18:24;7.45;;;2.15;;
51594;SDS011;37677;53.254;6.594;2023-10-31T03:20:50;7.88;;;2.28;;
51594;SDS011;37677;53.254;6.594;2023-10-31T03:25:49;11.27;;;2.17;;
51594;SDS011;37677;53.254;6.594;2023-10-31T03:28:18;9.13;;;2.30;;
51594;SDS011;37677;53.254;6.594;2023-10-31T03:31:11;6.88;;;2.35;;
51594;SDS011;37677;53.254;6.594;2023-10-31T03:33:53;10.20;;;2.28;;
51594;SDS011;37677;53.254;6.594;2023-10-31T03:36:19;5.22;;;1.95;;
51594;SDS011;37677;53.254;6.594;2023-10-31T03:38:46;6.15;;;1.92;;
51594;SDS011;37677;53.254;6.594;2023-10-31T03:41:12;5.70;;;2.17;;
51594;SDS011;37677;53.254;6.594;2023-10-31T03:43:48;10.93;;;2.78;;
51594;SDS011;37677;53.254;6.594;2023-10-31T03:46:15;5.00;;;2.40;;
51594;SDS011;37677;53.254;6.594;2023-10-31T03:51:14;7.55;;;2.70;;
51594;SDS011;37677;53.254;6.594;2023-10-31T03:53:40;7.03;;;2.28;;
51594;SDS011;37677;53.254;6.594;2023-10-31T03:56:06;5.85;;;2.65;;
51594;SDS011;37677;53.254;6.594;2023-10-31T03:58:33;6.22;;;2.60;;
51594;SDS011;37677;53.254;6.594;2023-10-31T04:01:08;8.07;;;2.83;;
51594;SDS011;37677;53.254;6.594;2023-10-31T04:06:09;4.75;;;2.67;;
51594;SDS011;37677;53.254;6.594;2023-10-31T04:08:35;4.55;;;2.08;;
51594;SDS011;37677;53.254;6.594;2023-10-31T04:11:03;7.88;;;2.70;;
51594;SDS011;37677;53.254;6.594;2023-10-31T04:13:29;7.82;;;2.60;;
51594;SDS011;37677;53.254;6.594;2023-10-31T04:15:55;7.05;;;2.95;;
51594;SDS011;37677;53.254;6.594;2023-10-31T04:18:21;4.03;;;1.90;;
51594;SDS011;37677;53.254;6.594;2023-10-31T04:23:40;4.60;;;1.90;;
51594;SDS011;37677;53.254;6.594;2023-10-31T04:26:06;4.93;;;2.40;;
51594;SDS011;37677;53.254;6.594;2023-10-31T04:28:35;7.28;;;2.20;;
51594;SDS011;37677;53.254;6.594;2023-10-31T04:33:45;7.28;;;2.90;;
51594;SDS011;37677;53.254;6.594;2023-10-31T04:36:13;6.47;;;2.25;;
51594;SDS011;37677;53.254;6.594;2023-10-31T04:44:28;6.45;;;2.65;;
51594;SDS011;37677;53.254;6.594;2023-10-31T04:46:57;7.85;;;2.38;;
51594;SDS011;37677;53.254;6.594;2023-10-31T04:49:24;6.45;;;2.22;;
51594;SDS011;37677;53.254;6.594;2023-10-31T04:51:50;5.47;;;1.75;;
51594;SDS011;37677;53.254;6.594;2023-10-31T04:54:23;9.82;;;2.20;;
51594;SDS011;37677;53.254;6.594;2023-10-31T04:56:49;6.00;;;1.70;;
51594;SDS011;37677;53.254;6.594;2023-10-31T04:59:23;7.22;;;2.20;;
51594;SDS011;37677;53.254;6.594;2023-10-31T05:01:51;8.15;;;2.25;;
51594;SDS011;37677;53.254;6.594;2023-10-31T05:07:43;5.93;;;2.00;;
51594;SDS011;37677;53.254;6.594;2023-10-31T05:10:10;6.93;;;1.95;;
51594;SDS011;37677;53.254;6.594;2023-10-31T05:12:43;5.53;;;1.83;;
51594;SDS011;37677;53.254;6.594;2023-10-31T05:15:09;4.35;;;1.95;;
51594;SDS011;37677;53.254;6.594;2023-10-31T05:17:45;3.85;;;1.80;;
51594;SDS011;37677;53.254;6.594;2023-10-31T05:20:11;4.22;;;2.05;;
51594;SDS011;37677;53.254;6.594;2023-10-31T05:22:37;3.53;;;1.75;;
51594;SDS011;37677;53.254;6.594;2023-10-31T05:25:06;3.80;;;1.70;;
51594;SDS011;37677;53.254;6.594;2023-10-31T05:27:42;5.32;;;2.00;;
51594;SDS011;37677;53.254;6.594;2023-10-31T05:30:14;3.42;;;1.77;;
51594;SDS011;37677;53.254;6.594;2023-10-31T05:32:40;4.93;;;1.90;;
51594;SDS011;37677;53.254;6.594;2023-10-31T05:35:06;2.83;;;1.40;;
51594;SDS011;37677;53.254;6.594;2023-10-31T05:37:33;2.35;;;1.30;;
51594;SDS011;37677;53.254;6.594;2023-10-31T05:39:59;4.63;;;1.75;;
51594;SDS011;37677;53.254;6.594;2023-10-31T05:42:29;4.30;;;1.25;;
51594;SDS011;37677;53.254;6.594;2023-10-31T05:45:18;1.70;;;1.00;;
51594;SDS011;37677;53.254;6.594;2023-10-31T05:47:44;2.42;;;1.10;;
51594;SDS011;37677;53.254;6.594;2023-10-31T05:50:12;3.38;;;1.00;;
51594;SDS011;37677;53.254;6.594;2023-10-31T05:52:44;3.20;;;1.20;;
51594;SDS011;37677;53.254;6.594;2023-10-31T05:55:16;2.25;;;1.10;;
51594;SDS011;37677;53.254;6.594;2023-10-31T05:57:42;3.53;;;1.10;;
51594;SDS011;37677;53.254;6.594;2023-10-31T06:00:09;2.25;;;1.10;;
51594;SDS011;37677;53.254;6.594;2023-10-31T06:02:35;1.98;;;0.88;;
51594;SDS011;37677;53.254;6.594;2023-10-31T06:05:01;1.70;;;1.10;;
51594;SDS011;37677;53.254;6.594;2023-10-31T06:07:30;2.53;;;1.33;;
51594;SDS011;37677;53.254;6.594;2023-10-31T06:09:59;4.22;;;1.60;;
51594;SDS011;37677;53.254;6.594;2023-10-31T06:12:25;2.95;;;1.30;;
51594;SDS011;37677;53.254;6.594;2023-10-31T06:14:54;2.35;;;1.23;;
51594;SDS011;37677;53.254;6.594;2023-10-31T06:17:22;2.30;;;1.00;;
51594;SDS011;37677;53.254;6.594;2023-10-31T06:19:48;1.77;;;1.08;;
51594;SDS011;37677;53.254;6.594;2023-10-31T06:22:15;4.50;;;1.15;;
51594;SDS011;37677;53.254;6.594;2023-10-31T06:24:41;3.95;;;1.40;;
51594;SDS011;37677;53.254;6.594;2023-10-31T06:27:08;2.70;;;1.20;;
51594;SDS011;37677;53.254;6.594;2023-10-31T06:29:44;3.25;;;1.40;;
51594;SDS011;37677;53.254;6.594;2023-10-31T06:32:10;2.53;;;1.40;;
51594;SDS011;37677;53.254;6.594;2023-10-31T06:34:44;1.98;;;1.52;;
51594;SDS011;37677;53.254;6.594;2023-10-31T06:37:10;3.97;;;1.73;;
51594;SDS011;37677;53.254;6.594;2023-10-31T06:39:38;3.22;;;1.95;;
51594;SDS011;37677;53.254;6.594;2023-10-31T06:42:04;2.72;;;1.55;;
51594;SDS011;37677;53.254;6.594;2023-10-31T06:44:30;2.75;;;1.75;;
51594;SDS011;37677;53.254;6.594;2023-10-31T06:47:02;6.95;;;1.58;;
51594;SDS011;37677;53.254;6.594;2023-10-31T06:49:33;4.80;;;1.83;;
51594;SDS011;37677;53.254;6.594;2023-10-31T06:52:04;4.60;;;1.55;;
51594;SDS011;37677;53.254;6.594;2023-10-31T06:54:44;3.58;;;1.60;;
51594;SDS011;37677;53.254;6.594;2023-10-31T06:57:16;4.90;;;1.80;;
51594;SDS011;37677;53.254;6.594;2023-10-31T06:59:45;4.65;;;1.80;;
51594;SDS011;37677;53.254;6.594;2023-10-31T07:02:14;3.60;;;2.03;;
51594;SDS011;37677;53.254;6.594;2023-10-31T07:04:40;4.53;;;1.70;;
51594;SDS011;37677;53.254;6.594;2023-10-31T07:07:09;3.55;;;1.83;;
51594;SDS011;37677;53.254;6.594;2023-10-31T07:09:35;3.88;;;1.70;;
51594;SDS011;37677;53.254;6.594;2023-10-31T07:12:04;4.93;;;2.00;;
51594;SDS011;37677;53.254;6.594;2023-10-31T07:14:31;3.45;;;2.00;;
51594;SDS011;37677;53.254;6.594;2023-10-31T07:19:48;6.57;;;2.03;;
51594;SDS011;37677;53.254;6.594;2023-10-31T07:22:14;4.78;;;2.10;;
51594;SDS011;37677;53.254;6.594;2023-10-31T07:24:53;4.68;;;2.20;;
51594;SDS011;37677;53.254;6.594;2023-10-31T07:27:19;3.03;;;1.70;;
51594;SDS011;37677;53.254;6.594;2023-10-31T07:29:45;5.65;;;2.15;;
51594;SDS011;37677;53.254;6.594;2023-10-31T07:32:14;5.82;;;2.50;;
51594;SDS011;37677;53.254;6.594;2023-10-31T07:34:43;6.88;;;2.08;;
51594;SDS011;37677;53.254;6.594;2023-10-31T07:37:14;3.97;;;1.80;;
51594;SDS011;37677;53.254;6.594;2023-10-31T07:39:40;4.35;;;1.70;;
51594;SDS011;37677;53.254;6.594;2023-10-31T07:42:07;6.38;;;2.00;;
51594;SDS011;37677;53.254;6.594;2023-10-31T07:47:17;5.53;;;2.17;;
51594;SDS011;37677;53.254;6.594;2023-10-31T07:49:56;4.95;;;2.00;;
51594;SDS011;37677;53.254;6.594;2023-10-31T07:52:22;9.38;;;2.00;;
51594;SDS011;37677;53.254;6.594;2023-10-31T07:54:49;5.63;;;1.88;;
51594;SDS011;37677;53.254;6.594;2023-10-31T07:57:15;4.60;;;1.60;;
51594;SDS011;37677;53.254;6.594;2023-10-31T07:59:41;5.82;;;1.73;;
51594;SDS011;37677;53.254;6.594;2023-10-31T08:02:14;4.03;;;1.42;;
51594;SDS011;37677;53.254;6.594;2023-10-31T08:04:40;4.93;;;2.10;;
51594;SDS011;37677;53.254;6.594;2023-10-31T08:07:06;3.30;;;1.50;;
51594;SDS011;37677;53.254;6.594;2023-10-31T08:09:33;5.13;;;1.40;;
51594;SDS011;37677;53.254;6.594;2023-10-31T08:12:01;3.55;;;1.63;;
51594;SDS011;37677;53.254;6.594;2023-10-31T08:14:27;4.72;;;2.25;;
51594;SDS011;37677;53.254;6.594;2023-10-31T08:16:53;5.57;;;2.08;;
51594;SDS011;37677;53.254;6.594;2023-10-31T08:19:19;4.75;;;1.40;;
51594;SDS011;37677;53.254;6.594;2023-10-31T08:21:48;4.70;;;1.48;;
51594;SDS011;37677;53.254;6.594;2023-10-31T08:24:14;4.50;;;1.70;;
51594;SDS011;37677;53.254;6.594;2023-10-31T08:26:40;3.05;;;1.20;;
51594;SDS011;37677;53.254;6.594;2023-10-31T08:29:06;7.35;;;1.70;;
51594;SDS011;37677;53.254;6.594;2023-10-31T08:31:33;2.35;;;1.08;;
51594;SDS011;37677;53.254;6.594;2023-10-31T08:34:02;6.65;;;1.60;;
51594;SDS011;37677;53.254;6.594;2023-10-31T08:36:29;3.72;;;1.20;;
51594;SDS011;37677;53.254;6.594;2023-10-31T08:38:55;6.72;;;1.65;;
51594;SDS011;37677;53.254;6.594;2023-10-31T08:41:21;4.15;;;1.38;;
51594;SDS011;37677;53.254;6.594;2023-10-31T08:43:47;8.85;;;1.55;;
51594;SDS011;37677;53.254;6.594;2023-10-31T08:46:13;7.78;;;1.85;;
51594;SDS011;37677;53.254;6.594;2023-10-31T08:48:39;10.70;;;2.25;;
51594;SDS011;37677;53.254;6.594;2023-10-31T08:51:06;10.15;;;2.22;;
51594;SDS011;37677;53.254;6.594;2023-10-31T08:53:35;10.13;;;1.83;;
51594;SDS011;37677;53.254;6.594;2023-10-31T08:56:01;7.68;;;1.65;;
51594;SDS011;37677;53.254;6.594;2023-10-31T08:58:27;8.43;;;1.92;;
51594;SDS011;37677;53.254;6.594;2023-10-31T09:00:54;4.90;;;1.20;;
51594;SDS011;37677;53.254;6.594;2023-10-31T09:03:20;4.93;;;1.42;;
51594;SDS011;37677;53.254;6.594;2023-10-31T09:05:46;6.20;;;1.15;;
51594;SDS011;37677;53.254;6.594;2023-10-31T09:08:12;6.13;;;2.17;;
51594;SDS011;37677;53.254;6.594;2023-10-31T09:10:38;4.20;;;1.40;;
51594;SDS011;37677;53.254;6.594;2023-10-31T09:13:04;7.40;;;1.65;;
51594;SDS011;37677;53.254;6.594;2023-10-31T09:15:32;7.40;;;1.50;;
51594;SDS011;37677;53.254;6.594;2023-10-31T09:17:59;7.95;;;1.42;;
51594;SDS011;37677;53.254;6.594;2023-10-31T09:20:25;4.78;;;1.08;;
51594;SDS011;37677;53.254;6.594;2023-10-31T09:22:51;7.15;;;1.95;;
51594;SDS011;37677;53.254;6.594;2023-10-31T09:25:17;6.25;;;1.05;;
51594;SDS011;37677;53.254;6.594;2023-10-31T09:27:45;5.78;;;1.65;;
51594;SDS011;37677;53.254;6.594;2023-10-31T09:30:12;5.78;;;1.50;;
51594;SDS011;37677;53.254;6.594;2023-10-31T09:32:38;4.75;;;1.58;;
51594;SDS011;37677;53.254;6.594;2023-10-31T09:35:04;5.10;;;1.35;;
51594;SDS011;37677;53.254;6.594;2023-10-31T09:37:31;1.83;;;0.90;;
51594;SDS011;37677;53.254;6.594;2023-10-31T09:39:57;4.28;;;1.50;;
51594;SDS011;37677;53.254;6.594;2023-10-31T09:42:23;2.35;;;1.00;;
51594;SDS011;37677;53.254;6.594;2023-10-31T09:44:49;3.63;;;1.35;;
51594;SDS011;37677;53.254;6.594;2023-10-31T09:47:15;6.32;;;1.60;;
51594;SDS011;37677;53.254;6.594;2023-10-31T09:49:41;3.95;;;1.10;;
51594;SDS011;37677;53.254;6.594;2023-10-31T09:52:07;4.47;;;1.10;;
51594;SDS011;37677;53.254;6.594;2023-10-31T09:54:33;4.88;;;1.27;;
51594;SDS011;37677;53.254;6.594;2023-10-31T09:57:00;4.28;;;1.40;;
51594;SDS011;37677;53.254;6.594;2023-10-31T09:59:26;4.00;;;1.23;;
51594;SDS011;37677;53.254;6.594;2023-10-31T10:01:52;3.30;;;1.00;;
51594;SDS011;37677;53.254;6.594;2023-10-31T10:04:18;3.33;;;1.25;;
51594;SDS011;37677;53.254;6.594;2023-10-31T10:06:57;3.67;;;1.10;;
51594;SDS011;37677;53.254;6.594;2023-10-31T10:09:23;6.43;;;1.30;;
51594;SDS011;37677;53.254;6.594;2023-10-31T10:11:52;6.68;;;1.30;;
51594;SDS011;37677;53.254;6.594;2023-10-31T10:14:19;8.32;;;1.67;;
51594;SDS011;37677;53.254;6.594;2023-10-31T10:16:46;3.65;;;1.13;;
51594;SDS011;37677;53.254;6.594;2023-10-31T10:19:16;5.65;;;1.08;;
51594;SDS011;37677;53.254;6.594;2023-10-31T10:21:53;4.10;;;1.10;;
51594;SDS011;37677;53.254;6.594;2023-10-31T10:24:20;7.93;;;1.48;;
51594;SDS011;37677;53.254;6.594;2023-10-31T10:26:46;3.60;;;1.10;;
51594;SDS011;37677;53.254;6.594;2023-10-31T10:29:13;3.72;;;1.20;;
51594;SDS011;37677;53.254;6.594;2023-10-31T10:31:39;5.75;;;1.13;;
51594;SDS011;37677;53.254;6.594;2023-10-31T10:34:09;3.53;;;1.30;;
51594;SDS011;37677;53.254;6.594;2023-10-31T10:36:35;4.78;;;1.10;;
51594;SDS011;37677;53.254;6.594;2023-10-31T10:39:01;3.53;;;1.25;;
51594;SDS011;37677;53.254;6.594;2023-10-31T10:41:28;2.72;;;1.00;;
51594;SDS011;37677;53.254;6.594;2023-10-31T10:43:56;3.10;;;0.98;;
51594;SDS011;37677;53.254;6.594;2023-10-31T10:46:25;4.35;;;1.35;;
51594;SDS011;37677;53.254;6.594;2023-10-31T10:48:54;4.55;;;1.00;;
51594;SDS011;37677;53.254;6.594;2023-10-31T10:51:29;2.95;;;1.40;;
51594;SDS011;37677;53.254;6.594;2023-10-31T10:54:15;2.42;;;1.13;;
51594;SDS011;37677;53.254;6.594;2023-10-31T10:56:54;3.60;;;1.30;;
51594;SDS011;37677;53.254;6.594;2023-10-31T10:59:23;5.45;;;1.50;;
51594;SDS011;37677;53.254;6.594;2023-10-31T11:01:51;3.92;;;1.67;;
51594;SDS011;37677;53.254;6.594;2023-10-31T11:04:17;4.90;;;1.35;;
51594;SDS011;37677;53.254;6.594;2023-10-31T11:06:43;3.78;;;1.13;;
51594;SDS011;37677;53.254;6.594;2023-10-31T11:09:10;4.75;;;1.30;;
51594;SDS011;37677;53.254;6.594;2023-10-31T11:11:37;5.07;;;1.35;;
51594;SDS011;37677;53.254;6.594;2023-10-31T11:14:04;7.30;;;1.85;;
51594;SDS011;37677;53.254;6.594;2023-10-31T11:16:32;7.28;;;1.75;;
51594;SDS011;37677;53.254;6.594;2023-10-31T11:19:00;3.33;;;1.25;;
51594;SDS011;37677;53.254;6.594;2023-10-31T11:21:29;7.75;;;2.22;;
51594;SDS011;37677;53.254;6.594;2023-10-31T11:23:58;8.65;;;1.85;;
51594;SDS011;37677;53.254;6.594;2023-10-31T11:26:25;7.03;;;1.58;;
51594;SDS011;37677;53.254;6.594;2023-10-31T11:28:51;6.45;;;1.42;;
51594;SDS011;37677;53.254;6.594;2023-10-31T11:31:18;5.63;;;1.67;;
51594;SDS011;37677;53.254;6.594;2023-10-31T11:33:44;3.92;;;1.30;;
51594;SDS011;37677;53.254;6.594;2023-10-31T11:36:11;5.38;;;1.70;;
51594;SDS011;37677;53.254;6.594;2023-10-31T11:41:09;9.25;;;2.28;;
51594;SDS011;37677;53.254;6.594;2023-10-31T11:46:33;10.20;;;2.50;;
51594;SDS011;37677;53.254;6.594;2023-10-31T11:51:30;5.53;;;1.60;;
51594;SDS011;37677;53.254;6.594;2023-10-31T11:53:56;6.22;;;1.50;;
51594;SDS011;37677;53.254;6.594;2023-10-31T11:56:22;10.20;;;1.30;;
51594;SDS011;37677;53.254;6.594;2023-10-31T11:58:55;5.07;;;1.33;;
51594;SDS011;37677;53.254;6.594;2023-10-31T12:01:22;6.95;;;1.70;;
51594;SDS011;37677;53.254;6.594;2023-10-31T12:03:48;6.75;;;1.60;;
51594;SDS011;37677;53.254;6.594;2023-10-31T12:06:14;6.35;;;1.50;;
51594;SDS011;37677;53.254;6.594;2023-10-31T12:08:41;4.90;;;1.55;;
51594;SDS011;37677;53.254;6.594;2023-10-31T12:11:11;5.85;;;1.50;;
51594;SDS011;37677;53.254;6.594;2023-10-31T12:13:38;4.50;;;1.35;;
51594;SDS011;37677;53.254;6.594;2023-10-31T12:16:09;6.10;;;1.67;;
51594;SDS011;37677;53.254;6.594;2023-10-31T12:18:37;4.32;;;1.30;;
51594;SDS011;37677;53.254;6.594;2023-10-31T12:21:04;5.78;;;1.73;;
51594;SDS011;37677;53.254;6.594;2023-10-31T12:23:32;4.60;;;1.73;;
51594;SDS011;37677;53.254;6.594;2023-10-31T12:25:58;7.90;;;1.80;;
51594;SDS011;37677;53.254;6.594;2023-10-31T12:28:25;6.40;;;1.95;;
51594;SDS011;37677;53.254;6.594;2023-10-31T12:30:53;5.93;;;1.40;;
51594;SDS011;37677;53.254;6.594;2023-10-31T12:33:26;5.50;;;1.52;;
51594;SDS011;37677;53.254;6.594;2023-10-31T12:35:54;5.90;;;1.65;;
51594;SDS011;37677;53.254;6.594;2023-10-31T12:38:22;4.75;;;1.70;;
51594;SDS011;37677;53.254;6.594;2023-10-31T12:40:48;5.30;;;1.40;;
51594;SDS011;37677;53.254;6.594;2023-10-31T12:43:16;5.95;;;1.17;;
51594;SDS011;37677;53.254;6.594;2023-10-31T12:45:42;7.50;;;2.17;;
51594;SDS011;37677;53.254;6.594;2023-10-31T12:48:09;5.63;;;1.48;;
51594;SDS011;37677;53.254;6.594;2023-10-31T12:50:37;6.10;;;1.40;;
51594;SDS011;37677;53.254;6.594;2023-10-31T12:53:05;4.47;;;1.55;;
51594;SDS011;37677;53.254;6.594;2023-10-31T12:55:37;4.90;;;1.95;;
51594;SDS011;37677;53.254;6.594;2023-10-31T12:58:03;6.80;;;1.58;;
51594;SDS011;37677;53.254;6.594;2023-10-31T13:00:34;4.47;;;1.40;;
51594;SDS011;37677;53.254;6.594;2023-10-31T13:03:01;5.20;;;1.27;;
51594;SDS011;37677;53.254;6.594;2023-10-31T13:05:27;3.88;;;1.13;;
51594;SDS011;37677;53.254;6.594;2023-10-31T13:07:54;4.60;;;1.30;;
51594;SDS011;37677;53.254;6.594;2023-10-31T13:10:25;4.32;;;1.40;;
51594;SDS011;37677;53.254;6.594;2023-10-31T13:12:52;4.25;;;1.70;;
51594;SDS011;37677;53.254;6.594;2023-10-31T13:15:21;5.60;;;1.40;;
51594;SDS011;37677;53.254;6.594;2023-10-31T13:17:48;3.75;;;1.20;;
51594;SDS011;37677;53.254;6.594;2023-10-31T13:20:15;2.95;;;1.50;;
51594;SDS011;37677;53.254;6.594;2023-10-31T13:22:41;5.28;;;2.03;;
51594;SDS011;37677;53.254;6.594;2023-10-31T13:25:11;4.78;;;1.27;;
51594;SDS011;37677;53.254;6.594;2023-10-31T13:27:38;7.85;;;1.55;;
51594;SDS011;37677;53.254;6.594;2023-10-31T13:30:06;4.90;;;1.30;;
51594;SDS011;37677;53.254;6.594;2023-10-31T13:32:33;4.18;;;1.55;;
51594;SDS011;37677;53.254;6.594;2023-10-31T13:35:14;3.65;;;1.20;;
51594;SDS011;37677;53.254;6.594;2023-10-31T13:37:43;3.00;;;1.15;;
51594;SDS011;37677;53.254;6.594;2023-10-31T13:40:09;3.58;;;1.30;;
51594;SDS011;37677;53.254;6.594;2023-10-31T13:42:43;8.70;;;1.63;;
51594;SDS011;37677;53.254;6.594;2023-10-31T13:45:09;3.17;;;1.10;;
51594;SDS011;37677;53.254;6.594;2023-10-31T13:47:38;4.82;;;1.33;;
51594;SDS011;37677;53.254;6.594;2023-10-31T13:50:04;3.88;;;1.27;;
51594;SDS011;37677;53.254;6.594;2023-10-31T13:52:31;4.47;;;0.95;;
51594;SDS011;37677;53.254;6.594;2023-10-31T13:55:03;4.53;;;1.20;;
51594;SDS011;37677;53.254;6.594;2023-10-31T13:57:29;2.67;;;1.02;;
51594;SDS011;37677;53.254;6.594;2023-10-31T13:59:55;5.57;;;1.63;;
51594;SDS011;37677;53.254;6.594;2023-10-31T14:02:22;4.18;;;1.15;;
51594;SDS011;37677;53.254;6.594;2023-10-31T14:04:48;5.15;;;1.50;;
51594;SDS011;37677;53.254;6.594;2023-10-31T14:07:17;2.78;;;1.30;;
51594;SDS011;37677;53.254;6.594;2023-10-31T14:09:48;4.70;;;1.30;;
51594;SDS011;37677;53.254;6.594;2023-10-31T14:12:14;6.18;;;1.48;;
51594;SDS011;37677;53.254;6.594;2023-10-31T14:14:40;5.25;;;2.28;;
51594;SDS011;37677;53.254;6.594;2023-10-31T14:17:06;6.38;;;1.92;;
51594;SDS011;37677;53.254;6.594;2023-10-31T14:19:32;5.20;;;1.42;;
51594;SDS011;37677;53.254;6.594;2023-10-31T14:21:58;5.18;;;1.20;;
51594;SDS011;37677;53.254;6.594;2023-10-31T14:24:26;4.07;;;1.50;;
51594;SDS011;37677;53.254;6.594;2023-10-31T14:26:53;4.75;;;1.25;;
51594;SDS011;37677;53.254;6.594;2023-10-31T14:29:19;9.10;;;1.42;;
51594;SDS011;37677;53.254;6.594;2023-10-31T14:31:46;4.13;;;1.17;;
51594;SDS011;37677;53.254;6.594;2023-10-31T14:34:12;5.65;;;1.40;;
51594;SDS011;37677;53.254;6.594;2023-10-31T14:36:38;3.00;;;1.10;;
51594;SDS011;37677;53.254;6.594;2023-10-31T14:39:08;6.63;;;1.38;;
51594;SDS011;37677;53.254;6.594;2023-10-31T14:41:37;5.82;;;1.52;;
51594;SDS011;37677;53.254;6.594;2023-10-31T14:44:03;5.93;;;1.20;;
51594;SDS011;37677;53.254;6.594;2023-10-31T14:46:29;7.22;;;1.52;;
51594;SDS011;37677;53.254;6.594;2023-10-31T14:48:58;7.05;;;2.13;;
51594;SDS011;37677;53.254;6.594;2023-10-31T14:51:24;3.83;;;1.52;;
51594;SDS011;37677;53.254;6.594;2023-10-31T14:53:50;4.35;;;1.75;;
51594;SDS011;37677;53.254;6.594;2023-10-31T14:56:16;2.42;;;1.20;;
51594;SDS011;37677;53.254;6.594;2023-10-31T14:58:42;5.05;;;1.30;;
51594;SDS011;37677;53.254;6.594;2023-10-31T15:01:08;7.32;;;1.27;;
51594;SDS011;37677;53.254;6.594;2023-10-31T15:03:34;4.80;;;1.30;;
51594;SDS011;37677;53.254;6.594;2023-10-31T15:06:01;4.57;;;1.38;;
51594;SDS011;37677;53.254;6.594;2023-10-31T15:08:28;4.97;;;1.48;;
51594;SDS011;37677;53.254;6.594;2023-10-31T15:10:54;7.57;;;1.58;;
51594;SDS011;37677;53.254;6.594;2023-10-31T15:13:21;4.60;;;1.38;;
51594;SDS011;37677;53.254;6.594;2023-10-31T15:15:47;3.63;;;1.08;;
51594;SDS011;37677;53.254;6.594;2023-10-31T15:18:14;4.65;;;1.27;;
51594;SDS011;37677;53.254;6.594;2023-10-31T15:20:40;4.15;;;1.40;;
51594;SDS011;37677;53.254;6.594;2023-10-31T15:23:06;5.20;;;1.23;;
51594;SDS011;37677;53.254;6.594;2023-10-31T15:25:32;6.35;;;1.65;;
51594;SDS011;37677;53.254;6.594;2023-10-31T15:27:59;5.30;;;1.60;;
51594;SDS011;37677;53.254;6.594;2023-10-31T15:30:26;5.55;;;1.40;;
51594;SDS011;37677;53.254;6.594;2023-10-31T15:32:53;9.52;;;1.30;;
51594;SDS011;37677;53.254;6.594;2023-10-31T15:35:19;5.18;;;1.30;;
51594;SDS011;37677;53.254;6.594;2023-10-31T15:37:46;3.88;;;1.33;;
51594;SDS011;37677;53.254;6.594;2023-10-31T15:40:12;7.97;;;1.50;;
51594;SDS011;37677;53.254;6.594;2023-10-31T15:42:39;5.32;;;1.52;;
51594;SDS011;37677;53.254;6.594;2023-10-31T15:45:05;2.70;;;1.20;;
51594;SDS011;37677;53.254;6.594;2023-10-31T15:47:31;5.80;;;1.48;;